Impacts TAF Board INFO
FOR SITUATIONAL AWARENESS. NOT TO BE USED FOR FLIGHT PLANNING PURPOSES.
IDs:

KDCA - Washington/National, VA, US

Issued at 2036 UTC 14 Aug 2018
Updated at 2201 UTC 14 Aug 2018
Potential Impact None Slight Moderate High
Time<<15/22Z 15/23Z 16/00Z 16/01Z 16/02Z 16/03Z 16/04Z 16/05Z 16/06Z 16/07Z 16/08Z 16/09Z 16/10Z
Type PRVL PRVL
VIS >6 >6
CIG -- --
Cover SCT SCT
FltCat VFR VFR
WX -- --
WDir 280 280
WSpd 5 5
WGst -- --

Raw TAF
KDCA 142036Z 1421/1524 28012G18KT P6SM VCTS SCT050CB BKN250
  TEMPO 1421/1423 30015G24KT -SHRA BKN050
  FM150000 30007KT P6SM SCT060 BKN090
  FM150600 28005KT P6SM FEW060 SCT250


METAR Board
Radar Display
Forecast Discussion

FOR SITUATIONAL AWARENESS. NOT TO BE USED FOR FLIGHT PLANNING PURPOSES.